sensor_id;sensor_type;location;lat;lon;timestamp;temperature;humidity
40816;DHT22;26535;48.788;9.214;2022-07-17T05:01:56;15.80;90.10
40816;DHT22;26535;48.788;9.214;2022-07-17T05:04:22;15.90;89.30
40816;DHT22;26535;48.788;9.214;2022-07-17T05:06:48;16.00;89.00
40816;DHT22;26535;48.788;9.214;2022-07-17T05:09:13;16.10;89.10
40816;DHT22;26535;48.788;9.214;2022-07-17T05:11:39;16.10;89.20
40816;DHT22;26535;48.788;9.214;2022-07-17T05:14:05;16.10;88.60
40816;DHT22;26535;48.788;9.214;2022-07-17T05:16:31;16.20;87.70
40816;DHT22;26535;48.788;9.214;2022-07-17T05:18:57;16.20;88.50
40816;DHT22;26535;48.788;9.214;2022-07-17T05:21:22;16.30;87.40
40816;DHT22;26535;48.788;9.214;2022-07-17T05:23:48;16.50;87.20
40816;DHT22;26535;48.788;9.214;2022-07-17T05:26:14;16.60;86.50
40816;DHT22;26535;48.788;9.214;2022-07-17T05:28:40;16.70;86.70
40816;DHT22;26535;48.788;9.214;2022-07-17T05:31:06;16.80;86.10
40816;DHT22;26535;48.788;9.214;2022-07-17T05:33:32;16.90;85.10
40816;DHT22;26535;48.788;9.214;2022-07-17T05:35:57;17.00;85.80
40816;DHT22;26535;48.788;9.214;2022-07-17T05:38:23;17.00;85.20
40816;DHT22;26535;48.788;9.214;2022-07-17T05:40:49;17.10;84.30
40816;DHT22;26535;48.788;9.214;2022-07-17T05:43:15;17.20;83.80
40816;DHT22;26535;48.788;9.214;2022-07-17T05:45:41;17.20;84.70
40816;DHT22;26535;48.788;9.214;2022-07-17T05:48:07;17.20;83.70
40816;DHT22;26535;48.788;9.214;2022-07-17T05:50:33;17.30;83.80
40816;DHT22;26535;48.788;9.214;2022-07-17T05:52:59;17.30;84.20
40816;DHT22;26535;48.788;9.214;2022-07-17T05:55:25;17.40;84.30
40816;DHT22;26535;48.788;9.214;2022-07-17T05:57:51;17.40;82.90
40816;DHT22;26535;48.788;9.214;2022-07-17T06:00:17;17.50;82.40
40816;DHT22;26535;48.788;9.214;2022-07-17T06:02:44;17.60;82.20
40816;DHT22;26535;48.788;9.214;2022-07-17T06:05:10;17.70;82.80
40816;DHT22;26535;48.788;9.214;2022-07-17T06:07:37;17.80;81.70
40816;DHT22;26535;48.788;9.214;2022-07-17T06:10:06;17.80;81.40
40816;DHT22;26535;48.788;9.214;2022-07-17T06:12:32;17.90;81.80
40816;DHT22;26535;48.788;9.214;2022-07-17T06:14:58;17.90;82.00
40816;DHT22;26535;48.788;9.214;2022-07-17T06:17:23;17.90;81.80
40816;DHT22;26535;48.788;9.214;2022-07-17T06:19:49;18.00;81.20
40816;DHT22;26535;48.788;9.214;2022-07-17T06:22:19;18.10;81.10
40816;DHT22;26535;48.788;9.214;2022-07-17T06:24:45;18.20;81.00
40816;DHT22;26535;48.788;9.214;2022-07-17T06:27:11;18.30;80.80
40816;DHT22;26535;48.788;9.214;2022-07-17T06:29:37;18.50;80.50
40816;DHT22;26535;48.788;9.214;2022-07-17T06:32:03;18.60;79.80
40816;DHT22;26535;48.788;9.214;2022-07-17T06:34:29;18.70;78.20
40816;DHT22;26535;48.788;9.214;2022-07-17T06:36:55;18.80;78.00
40816;DHT22;26535;48.788;9.214;2022-07-17T06:39:23;19.00;77.50
40816;DHT22;26535;48.788;9.214;2022-07-17T06:41:49;19.10;76.50
40816;DHT22;26535;48.788;9.214;2022-07-17T06:44:15;19.20;76.30
40816;DHT22;26535;48.788;9.214;2022-07-17T06:46:41;19.30;75.90
40816;DHT22;26535;48.788;9.214;2022-07-17T06:49:07;19.50;75.30
40816;DHT22;26535;48.788;9.214;2022-07-17T06:51:32;19.60;75.50
40816;DHT22;26535;48.788;9.214;2022-07-17T06:53:58;19.80;74.50
40816;DHT22;26535;48.788;9.214;2022-07-17T06:56:24;19.80;74.00
40816;DHT22;26535;48.788;9.214;2022-07-17T06:58:50;20.00;73.70
40816;DHT22;26535;48.788;9.214;2022-07-17T07:01:16;20.10;72.90
40816;DHT22;26535;48.788;9.214;2022-07-17T07:03:41;20.20;72.60
40816;DHT22;26535;48.788;9.214;2022-07-17T07:06:08;20.30;71.90
40816;DHT22;26535;48.788;9.214;2022-07-17T07:08:34;20.40;71.50
40816;DHT22;26535;48.788;9.214;2022-07-17T07:11:01;20.60;70.40
40816;DHT22;26535;48.788;9.214;2022-07-17T07:13:28;20.70;70.20
40816;DHT22;26535;48.788;9.214;2022-07-17T07:15:54;20.80;70.60
40816;DHT22;26535;48.788;9.214;2022-07-17T07:18:20;20.90;69.80
40816;DHT22;26535;48.788;9.214;2022-07-17T07:20:46;20.80;69.90
40816;DHT22;26535;48.788;9.214;2022-07-17T07:23:12;21.00;70.20
40816;DHT22;26535;48.788;9.214;2022-07-17T07:25:38;21.10;69.60
40816;DHT22;26535;48.788;9.214;2022-07-17T07:28:04;21.20;69.10
40816;DHT22;26535;48.788;9.214;2022-07-17T07:30:30;21.40;69.10
40816;DHT22;26535;48.788;9.214;2022-07-17T07:32:56;21.40;69.10
40816;DHT22;26535;48.788;9.214;2022-07-17T07:35:22;21.40;67.70
40816;DHT22;26535;48.788;9.214;2022-07-17T07:37:48;21.60;67.50
40816;DHT22;26535;48.788;9.214;2022-07-17T07:40:14;21.60;66.60
40816;DHT22;26535;48.788;9.214;2022-07-17T07:42:40;21.50;66.80
40816;DHT22;26535;48.788;9.214;2022-07-17T07:45:07;21.50;67.50
40816;DHT22;26535;48.788;9.214;2022-07-17T07:47:43;21.50;67.80
40816;DHT22;26535;48.788;9.214;2022-07-17T07:50:09;21.60;66.80
40816;DHT22;26535;48.788;9.214;2022-07-17T07:52:37;21.70;66.00
40816;DHT22;26535;48.788;9.214;2022-07-17T07:55:03;21.80;66.50
40816;DHT22;26535;48.788;9.214;2022-07-17T07:57:30;21.90;66.30
40816;DHT22;26535;48.788;9.214;2022-07-17T07:59:55;21.90;65.50
40816;DHT22;26535;48.788;9.214;2022-07-17T08:02:21;21.90;65.20
40816;DHT22;26535;48.788;9.214;2022-07-17T08:04:50;22.10;65.20
40816;DHT22;26535;48.788;9.214;2022-07-17T08:07:16;22.10;64.70
40816;DHT22;26535;48.788;9.214;2022-07-17T08:09:42;22.20;65.20
40816;DHT22;26535;48.788;9.214;2022-07-17T08:12:08;22.30;65.20
40816;DHT22;26535;48.788;9.214;2022-07-17T08:14:33;22.60;64.80
40816;DHT22;26535;48.788;9.214;2022-07-17T08:16:59;22.70;64.00
40816;DHT22;26535;48.788;9.214;2022-07-17T08:19:25;22.80;63.50
40816;DHT22;26535;48.788;9.214;2022-07-17T08:21:51;22.80;64.00
40816;DHT22;26535;48.788;9.214;2022-07-17T08:24:17;22.90;63.80
40816;DHT22;26535;48.788;9.214;2022-07-17T08:26:43;22.90;63.30
40816;DHT22;26535;48.788;9.214;2022-07-17T08:29:09;22.90;64.00
40816;DHT22;26535;48.788;9.214;2022-07-17T08:31:35;23.00;63.60
40816;DHT22;26535;48.788;9.214;2022-07-17T08:34:01;23.10;63.10
40816;DHT22;26535;48.788;9.214;2022-07-17T08:36:27;23.10;62.50
40816;DHT22;26535;48.788;9.214;2022-07-17T08:38:52;23.10;62.80
40816;DHT22;26535;48.788;9.214;2022-07-17T08:41:18;23.10;63.10
40816;DHT22;26535;48.788;9.214;2022-07-17T08:43:48;23.40;62.60
40816;DHT22;26535;48.788;9.214;2022-07-17T08:46:14;23.50;61.70
40816;DHT22;26535;48.788;9.214;2022-07-17T08:48:42;23.60;61.20
40816;DHT22;26535;48.788;9.214;2022-07-17T08:51:10;23.70;61.30
40816;DHT22;26535;48.788;9.214;2022-07-17T08:53:37;23.80;60.70
40816;DHT22;26535;48.788;9.214;2022-07-17T08:56:06;23.90;60.50
40816;DHT22;26535;48.788;9.214;2022-07-17T08:58:32;23.90;60.00
40816;DHT22;26535;48.788;9.214;2022-07-17T09:00:58;23.90;60.20
40816;DHT22;26535;48.788;9.214;2022-07-17T09:03:30;24.10;60.20
40816;DHT22;26535;48.788;9.214;2022-07-17T09:05:55;24.10;60.40
40816;DHT22;26535;48.788;9.214;2022-07-17T09:08:23;24.30;59.60
40816;DHT22;26535;48.788;9.214;2022-07-17T09:10:53;24.20;59.00
40816;DHT22;26535;48.788;9.214;2022-07-17T09:13:28;24.30;59.40
40816;DHT22;26535;48.788;9.214;2022-07-17T09:16:05;24.40;59.70
40816;DHT22;26535;48.788;9.214;2022-07-17T09:18:41;24.50;58.60
40816;DHT22;26535;48.788;9.214;2022-07-17T09:21:07;24.60;58.20
40816;DHT22;26535;48.788;9.214;2022-07-17T09:23:33;24.70;57.90
40816;DHT22;26535;48.788;9.214;2022-07-17T09:26:00;24.70;58.20
40816;DHT22;26535;48.788;9.214;2022-07-17T09:28:26;24.80;58.60
40816;DHT22;26535;48.788;9.214;2022-07-17T09:30:53;25.00;58.00
40816;DHT22;26535;48.788;9.214;2022-07-17T09:33:24;25.10;56.00
40816;DHT22;26535;48.788;9.214;2022-07-17T09:35:55;25.10;55.60
40816;DHT22;26535;48.788;9.214;2022-07-17T09:38:31;25.20;55.20
40816;DHT22;26535;48.788;9.214;2022-07-17T09:41:09;25.30;54.30
40816;DHT22;26535;48.788;9.214;2022-07-17T09:43:47;25.30;54.90
40816;DHT22;26535;48.788;9.214;2022-07-17T09:49:06;25.40;53.70
40816;DHT22;26535;48.788;9.214;2022-07-17T09:51:36;25.60;53.50
40816;DHT22;26535;48.788;9.214;2022-07-17T09:54:09;25.60;53.80
40816;DHT22;26535;48.788;9.214;2022-07-17T09:56:39;25.70;54.00
40816;DHT22;26535;48.788;9.214;2022-07-17T09:59:06;25.80;53.30
40816;DHT22;26535;48.788;9.214;2022-07-17T10:01:37;25.80;54.10
40816;DHT22;26535;48.788;9.214;2022-07-17T10:04:11;25.80;53.70
40816;DHT22;26535;48.788;9.214;2022-07-17T10:06:37;25.90;53.00
40816;DHT22;26535;48.788;9.214;2022-07-17T10:09:09;25.90;52.20
40816;DHT22;26535;48.788;9.214;2022-07-17T10:11:40;25.90;53.40
40816;DHT22;26535;48.788;9.214;2022-07-17T10:14:11;26.00;52.20
40816;DHT22;26535;48.788;9.214;2022-07-17T10:16:37;26.00;53.30
40816;DHT22;26535;48.788;9.214;2022-07-17T10:19:24;26.10;53.10
40816;DHT22;26535;48.788;9.214;2022-07-17T10:24:32;26.00;52.80
40816;DHT22;26535;48.788;9.214;2022-07-17T10:27:21;25.90;53.20
40816;DHT22;26535;48.788;9.214;2022-07-17T10:29:47;25.90;53.60
40816;DHT22;26535;48.788;9.214;2022-07-17T10:32:23;26.10;53.10
40816;DHT22;26535;48.788;9.214;2022-07-17T10:34:57;26.20;53.90
40816;DHT22;26535;48.788;9.214;2022-07-17T10:37:32;26.20;53.60
40816;DHT22;26535;48.788;9.214;2022-07-17T10:40:30;26.40;53.00
40816;DHT22;26535;48.788;9.214;2022-07-17T10:43:02;26.50;53.60
40816;DHT22;26535;48.788;9.214;2022-07-17T10:45:31;26.60;53.00
40816;DHT22;26535;48.788;9.214;2022-07-17T10:48:16;26.60;53.10
40816;DHT22;26535;48.788;9.214;2022-07-17T10:50:48;26.70;52.00
40816;DHT22;26535;48.788;9.214;2022-07-17T10:53:22;26.80;52.20
40816;DHT22;26535;48.788;9.214;2022-07-17T10:56:01;26.80;52.00
40816;DHT22;26535;48.788;9.214;2022-07-17T10:58:33;26.80;52.50
40816;DHT22;26535;48.788;9.214;2022-07-17T11:01:07;27.00;52.20
40816;DHT22;26535;48.788;9.214;2022-07-17T11:03:53;27.10;52.00
40816;DHT22;26535;48.788;9.214;2022-07-17T11:06:28;27.30;51.60
40816;DHT22;26535;48.788;9.214;2022-07-17T11:11:46;27.50;49.40
40816;DHT22;26535;48.788;9.214;2022-07-17T11:14:17;27.70;49.60
40816;DHT22;26535;48.788;9.214;2022-07-17T11:16:58;27.70;50.10
40816;DHT22;26535;48.788;9.214;2022-07-17T11:19:33;27.50;50.00
40816;DHT22;26535;48.788;9.214;2022-07-17T11:22:03;27.70;50.30
40816;DHT22;26535;48.788;9.214;2022-07-17T11:27:05;28.20;49.10
40816;DHT22;26535;48.788;9.214;2022-07-17T11:29:36;28.30;48.70
40816;DHT22;26535;48.788;9.214;2022-07-17T11:32:02;28.40;48.80
40816;DHT22;26535;48.788;9.214;2022-07-17T11:34:28;28.60;48.60
40816;DHT22;26535;48.788;9.214;2022-07-17T11:37:02;28.80;48.00
40816;DHT22;26535;48.788;9.214;2022-07-17T11:39:42;29.30;47.10
40816;DHT22;26535;48.788;9.214;2022-07-17T11:42:13;29.90;47.20
40816;DHT22;26535;48.788;9.214;2022-07-17T11:44:39;30.40;46.00
40816;DHT22;26535;48.788;9.214;2022-07-17T11:47:06;31.10;46.90
40816;DHT22;26535;48.788;9.214;2022-07-17T11:49:37;31.60;46.00
40816;DHT22;26535;48.788;9.214;2022-07-17T11:52:13;32.40;45.00
40816;DHT22;26535;48.788;9.214;2022-07-17T11:54:54;33.60;45.60
40816;DHT22;26535;48.788;9.214;2022-07-17T11:57:21;34.00;43.60
40816;DHT22;26535;48.788;9.214;2022-07-17T11:59:48;34.70;43.30
40816;DHT22;26535;48.788;9.214;2022-07-17T12:02:18;35.70;42.50
40816;DHT22;26535;48.788;9.214;2022-07-17T12:04:55;36.50;41.70
40816;DHT22;26535;48.788;9.214;2022-07-17T12:07:23;37.20;40.80
40816;DHT22;26535;48.788;9.214;2022-07-17T12:09:49;37.60;40.40
40816;DHT22;26535;48.788;9.214;2022-07-17T12:12:26;38.30;39.80
40816;DHT22;26535;48.788;9.214;2022-07-17T12:14:53;38.80;39.10
40816;DHT22;26535;48.788;9.214;2022-07-17T12:17:20;38.80;39.20
40816;DHT22;26535;48.788;9.214;2022-07-17T12:19:46;39.90;39.30
40816;DHT22;26535;48.788;9.214;2022-07-17T12:22:13;40.90;38.60
40816;DHT22;26535;48.788;9.214;2022-07-17T12:24:41;41.30;37.70
40816;DHT22;26535;48.788;9.214;2022-07-17T12:27:09;42.30;37.90
40816;DHT22;26535;48.788;9.214;2022-07-17T12:29:35;41.80;36.90
40816;DHT22;26535;48.788;9.214;2022-07-17T12:32:02;41.60;37.30
40816;DHT22;26535;48.788;9.214;2022-07-17T12:34:35;41.40;37.60
40816;DHT22;26535;48.788;9.214;2022-07-17T12:37:01;41.40;37.80
40816;DHT22;26535;48.788;9.214;2022-07-17T12:39:27;41.90;37.60
40816;DHT22;26535;48.788;9.214;2022-07-17T12:41:53;42.60;37.30
40816;DHT22;26535;48.788;9.214;2022-07-17T12:44:18;42.30;37.20
40816;DHT22;26535;48.788;9.214;2022-07-17T12:46:44;43.00;37.70
40816;DHT22;26535;48.788;9.214;2022-07-17T12:49:10;43.70;37.00
40816;DHT22;26535;48.788;9.214;2022-07-17T12:51:36;44.60;36.60
40816;DHT22;26535;48.788;9.214;2022-07-17T12:54:01;44.80;35.90
40816;DHT22;26535;48.788;9.214;2022-07-17T12:56:27;45.10;35.10
40816;DHT22;26535;48.788;9.214;2022-07-17T12:58:53;45.20;35.40
40816;DHT22;26535;48.788;9.214;2022-07-17T13:01:19;45.10;35.00
40816;DHT22;26535;48.788;9.214;2022-07-17T13:03:46;45.10;34.50
40816;DHT22;26535;48.788;9.214;2022-07-17T13:06:12;45.30;34.40
40816;DHT22;26535;48.788;9.214;2022-07-17T13:08:38;45.10;34.00
40816;DHT22;26535;48.788;9.214;2022-07-17T13:11:04;45.10;34.70
40816;DHT22;26535;48.788;9.214;2022-07-17T13:13:30;45.30;34.90
40816;DHT22;26535;48.788;9.214;2022-07-17T13:15:56;45.10;34.10
40816;DHT22;26535;48.788;9.214;2022-07-17T13:18:23;45.10;33.80
40816;DHT22;26535;48.788;9.214;2022-07-17T13:20:49;45.20;33.80
40816;DHT22;26535;48.788;9.214;2022-07-17T13:23:15;45.40;33.60
40816;DHT22;26535;48.788;9.214;2022-07-17T13:25:41;46.40;33.90
40816;DHT22;26535;48.788;9.214;2022-07-17T13:28:09;47.20;33.60
40816;DHT22;26535;48.788;9.214;2022-07-17T13:30:35;47.50;32.90
40816;DHT22;26535;48.788;9.214;2022-07-17T13:33:01;47.40;32.30
40816;DHT22;26535;48.788;9.214;2022-07-17T13:35:28;47.10;32.60
40816;DHT22;26535;48.788;9.214;2022-07-17T13:37:54;47.60;32.20
40816;DHT22;26535;48.788;9.214;2022-07-17T13:40:20;48.50;32.50
40816;DHT22;26535;48.788;9.214;2022-07-17T13:42:46;48.40;32.30
40816;DHT22;26535;48.788;9.214;2022-07-17T13:45:12;48.20;32.00
40816;DHT22;26535;48.788;9.214;2022-07-17T13:47:38;48.10;31.60
40816;DHT22;26535;48.788;9.214;2022-07-17T13:50:05;48.70;32.20
40816;DHT22;26535;48.788;9.214;2022-07-17T13:52:31;49.70;32.20
40816;DHT22;26535;48.788;9.214;2022-07-17T13:54:57;49.10;32.00
40816;DHT22;26535;48.788;9.214;2022-07-17T13:57:23;48.80;32.30
40816;DHT22;26535;48.788;9.214;2022-07-17T13:59:49;48.40;31.50
40816;DHT22;26535;48.788;9.214;2022-07-17T14:02:15;48.00;32.00
40816;DHT22;26535;48.788;9.214;2022-07-17T14:04:41;48.80;32.30
40816;DHT22;26535;48.788;9.214;2022-07-17T14:07:07;49.70;31.70
40816;DHT22;26535;48.788;9.214;2022-07-17T14:09:34;50.20;31.60
40816;DHT22;26535;48.788;9.214;2022-07-17T14:11:59;50.50;31.60
40816;DHT22;26535;48.788;9.214;2022-07-17T14:14:26;50.20;31.30
40816;DHT22;26535;48.788;9.214;2022-07-17T14:16:52;49.70;31.50
40816;DHT22;26535;48.788;9.214;2022-07-17T14:19:18;49.60;31.20
40816;DHT22;26535;48.788;9.214;2022-07-17T14:21:43;49.50;31.40
40816;DHT22;26535;48.788;9.214;2022-07-17T14:24:09;49.40;31.20
40816;DHT22;26535;48.788;9.214;2022-07-17T14:26:36;49.70;31.80
40816;DHT22;26535;48.788;9.214;2022-07-17T14:29:03;50.20;31.50
40816;DHT22;26535;48.788;9.214;2022-07-17T14:31:29;49.70;32.20
40816;DHT22;26535;48.788;9.214;2022-07-17T14:33:55;49.40;31.20
40816;DHT22;26535;48.788;9.214;2022-07-17T14:36:21;50.60;31.20
40816;DHT22;26535;48.788;9.214;2022-07-17T14:38:47;51.50;30.80
40816;DHT22;26535;48.788;9.214;2022-07-17T14:41:13;51.10;30.60
40816;DHT22;26535;48.788;9.214;2022-07-17T14:43:39;51.20;30.20
40816;DHT22;26535;48.788;9.214;2022-07-17T14:46:04;50.80;31.00
40816;DHT22;26535;48.788;9.214;2022-07-17T14:48:30;51.20;31.80
40816;DHT22;26535;48.788;9.214;2022-07-17T14:50:56;51.00;30.60
40816;DHT22;26535;48.788;9.214;2022-07-17T14:53:22;51.30;30.60
40816;DHT22;26535;48.788;9.214;2022-07-17T14:55:48;51.40;31.30
40816;DHT22;26535;48.788;9.214;2022-07-17T14:58:14;51.20;30.70
40816;DHT22;26535;48.788;9.214;2022-07-17T15:00:40;51.10;31.00
40816;DHT22;26535;48.788;9.214;2022-07-17T15:03:06;50.80;30.90
40816;DHT22;26535;48.788;9.214;2022-07-17T15:05:31;50.70;30.50
40816;DHT22;26535;48.788;9.214;2022-07-17T15:07:57;51.30;30.80
40816;DHT22;26535;48.788;9.214;2022-07-17T15:10:23;51.40;31.00
40816;DHT22;26535;48.788;9.214;2022-07-17T15:12:49;51.00;30.60
40816;DHT22;26535;48.788;9.214;2022-07-17T15:15:14;51.60;30.70
40816;DHT22;26535;48.788;9.214;2022-07-17T15:17:40;52.20;30.80
40816;DHT22;26535;48.788;9.214;2022-07-17T15:20:06;52.00;31.00
40816;DHT22;26535;48.788;9.214;2022-07-17T15:22:35;51.70;31.10
40816;DHT22;26535;48.788;9.214;2022-07-17T15:25:01;51.30;31.20
40816;DHT22;26535;48.788;9.214;2022-07-17T15:27:26;50.90;31.30
40816;DHT22;26535;48.788;9.214;2022-07-17T15:29:52;51.20;31.20
40816;DHT22;26535;48.788;9.214;2022-07-17T15:32:18;51.50;31.30
40816;DHT22;26535;48.788;9.214;2022-07-17T15:34:44;51.20;30.80
40816;DHT22;26535;48.788;9.214;2022-07-17T15:37:09;50.10;31.20
40816;DHT22;26535;48.788;9.214;2022-07-17T15:39:35;50.20;31.90
40816;DHT22;26535;48.788;9.214;2022-07-17T15:42:01;49.70;30.90
40816;DHT22;26535;48.788;9.214;2022-07-17T15:44:27;50.30;31.10
40816;DHT22;26535;48.788;9.214;2022-07-17T15:46:53;49.80;30.90
40816;DHT22;26535;48.788;9.214;2022-07-17T15:49:19;50.20;31.20
40816;DHT22;26535;48.788;9.214;2022-07-17T15:51:54;50.80;31.40
40816;DHT22;26535;48.788;9.214;2022-07-17T15:54:27;50.80;31.20
40816;DHT22;26535;48.788;9.214;2022-07-17T15:57:02;50.60;31.30
40816;DHT22;26535;48.788;9.214;2022-07-17T15:59:47;50.30;31.60
40816;DHT22;26535;48.788;9.214;2022-07-17T16:02:13;49.70;31.70
40816;DHT22;26535;48.788;9.214;2022-07-17T16:04:41;50.80;31.60
40816;DHT22;26535;48.788;9.214;2022-07-17T16:07:07;50.50;31.40
40816;DHT22;26535;48.788;9.214;2022-07-17T16:09:33;50.10;31.40
40816;DHT22;26535;48.788;9.214;2022-07-17T16:11:59;50.80;31.40
40816;DHT22;26535;48.788;9.214;2022-07-17T16:14:25;50.30;31.30
40816;DHT22;26535;48.788;9.214;2022-07-17T16:16:51;50.60;31.60
40816;DHT22;26535;48.788;9.214;2022-07-17T16:19:35;50.10;31.30
40816;DHT22;26535;48.788;9.214;2022-07-17T16:22:00;49.30;31.70
40816;DHT22;26535;48.788;9.214;2022-07-17T16:24:26;49.70;31.80
40816;DHT22;26535;48.788;9.214;2022-07-17T16:26:52;50.60;31.60
40816;DHT22;26535;48.788;9.214;2022-07-17T16:29:18;50.40;31.50
40816;DHT22;26535;48.788;9.214;2022-07-17T16:31:43;50.90;31.70
40816;DHT22;26535;48.788;9.214;2022-07-17T16:34:09;50.10;31.20
40816;DHT22;26535;48.788;9.214;2022-07-17T16:36:35;50.70;31.50
40816;DHT22;26535;48.788;9.214;2022-07-17T16:39:01;50.70;31.20
40816;DHT22;26535;48.788;9.214;2022-07-17T16:41:26;50.10;31.30
40816;DHT22;26535;48.788;9.214;2022-07-17T16:43:52;49.90;31.30
40816;DHT22;26535;48.788;9.214;2022-07-17T16:46:18;49.40;31.50
40816;DHT22;26535;48.788;9.214;2022-07-17T16:48:44;49.70;31.60
40816;DHT22;26535;48.788;9.214;2022-07-17T16:51:10;49.70;31.60
40816;DHT22;26535;48.788;9.214;2022-07-17T16:53:35;48.90;31.60
40816;DHT22;26535;48.788;9.214;2022-07-17T16:56:01;47.00;32.00
40816;DHT22;26535;48.788;9.214;2022-07-17T16:58:27;45.00;33.20
40816;DHT22;26535;48.788;9.214;2022-07-17T17:00:53;43.00;34.00
40816;DHT22;26535;48.788;9.214;2022-07-17T17:03:19;42.40;34.40
40816;DHT22;26535;48.788;9.214;2022-07-17T17:05:44;40.90;34.60
40816;DHT22;26535;48.788;9.214;2022-07-17T17:08:10;39.50;35.60
40816;DHT22;26535;48.788;9.214;2022-07-17T17:10:36;38.70;36.70
40816;DHT22;26535;48.788;9.214;2022-07-17T17:13:04;39.60;36.40
40816;DHT22;26535;48.788;9.214;2022-07-17T17:15:29;40.90;35.70
40816;DHT22;26535;48.788;9.214;2022-07-17T17:17:55;42.10;34.70
40816;DHT22;26535;48.788;9.214;2022-07-17T17:20:21;43.30;34.10
40816;DHT22;26535;48.788;9.214;2022-07-17T17:22:48;44.40;34.20
40816;DHT22;26535;48.788;9.214;2022-07-17T17:25:13;44.50;33.00
40816;DHT22;26535;48.788;9.214;2022-07-17T17:27:39;44.50;33.20
40816;DHT22;26535;48.788;9.214;2022-07-17T17:30:06;44.70;33.20
40816;DHT22;26535;48.788;9.214;2022-07-17T17:32:32;44.80;33.10
40816;DHT22;26535;48.788;9.214;2022-07-17T17:34:58;45.00;33.00
40816;DHT22;26535;48.788;9.214;2022-07-17T17:37:24;45.30;32.90
40816;DHT22;26535;48.788;9.214;2022-07-17T17:39:50;45.20;32.70
40816;DHT22;26535;48.788;9.214;2022-07-17T17:42:16;45.60;32.70
40816;DHT22;26535;48.788;9.214;2022-07-17T17:44:42;45.30;32.70
40816;DHT22;26535;48.788;9.214;2022-07-17T17:47:08;45.40;32.60
40816;DHT22;26535;48.788;9.214;2022-07-17T17:49:33;45.20;32.70
40816;DHT22;26535;48.788;9.214;2022-07-17T17:51:59;44.90;33.20
40816;DHT22;26535;48.788;9.214;2022-07-17T17:54:25;45.10;32.70
40816;DHT22;26535;48.788;9.214;2022-07-17T17:56:51;44.70;32.90
40816;DHT22;26535;48.788;9.214;2022-07-17T17:59:17;44.20;32.90
40816;DHT22;26535;48.788;9.214;2022-07-17T18:01:43;43.90;33.00
40816;DHT22;26535;48.788;9.214;2022-07-17T18:04:10;43.90;33.30
40816;DHT22;26535;48.788;9.214;2022-07-17T18:06:36;43.40;33.30
40816;DHT22;26535;48.788;9.214;2022-07-17T18:09:03;43.40;33.60
40816;DHT22;26535;48.788;9.214;2022-07-17T18:11:29;43.40;33.40
40816;DHT22;26535;48.788;9.214;2022-07-17T18:13:55;42.60;33.60
40816;DHT22;26535;48.788;9.214;2022-07-17T18:16:21;41.20;34.40
40816;DHT22;26535;48.788;9.214;2022-07-17T18:18:47;40.70;34.60
40816;DHT22;26535;48.788;9.214;2022-07-17T18:21:21;40.60;35.00
40816;DHT22;26535;48.788;9.214;2022-07-17T18:23:48;40.50;34.80
40816;DHT22;26535;48.788;9.214;2022-07-17T18:26:14;40.00;35.00
40816;DHT22;26535;48.788;9.214;2022-07-17T18:28:39;38.90;35.60
40816;DHT22;26535;48.788;9.214;2022-07-17T18:31:06;37.90;36.90
40816;DHT22;26535;48.788;9.214;2022-07-17T18:33:31;36.90;37.20
40816;DHT22;26535;48.788;9.214;2022-07-17T18:35:57;35.90;37.90
40816;DHT22;26535;48.788;9.214;2022-07-17T18:38:23;35.00;38.70
40816;DHT22;26535;48.788;9.214;2022-07-17T18:40:48;34.10;38.80
40816;DHT22;26535;48.788;9.214;2022-07-17T18:43:18;33.30;38.80
40816;DHT22;26535;48.788;9.214;2022-07-17T18:45:44;32.70;40.10
40816;DHT22;26535;48.788;9.214;2022-07-17T18:48:10;32.30;40.30
40816;DHT22;26535;48.788;9.214;2022-07-17T18:50:36;31.90;41.00
40816;DHT22;26535;48.788;9.214;2022-07-17T18:53:03;31.50;41.00
40816;DHT22;26535;48.788;9.214;2022-07-17T18:55:32;31.20;41.80
40816;DHT22;26535;48.788;9.214;2022-07-17T18:57:58;30.90;42.10
40816;DHT22;26535;48.788;9.214;2022-07-17T19:00:24;30.70;42.40
40816;DHT22;26535;48.788;9.214;2022-07-17T19:02:51;30.40;42.40
40816;DHT22;26535;48.788;9.214;2022-07-17T19:05:16;30.20;42.40
40816;DHT22;26535;48.788;9.214;2022-07-17T19:07:42;30.10;42.80
40816;DHT22;26535;48.788;9.214;2022-07-17T19:10:09;29.90;43.50
40816;DHT22;26535;48.788;9.214;2022-07-17T19:12:35;29.70;42.30
40816;DHT22;26535;48.788;9.214;2022-07-17T19:15:02;29.50;43.00
40816;DHT22;26535;48.788;9.214;2022-07-17T19:17:28;29.30;42.60
40816;DHT22;26535;48.788;9.214;2022-07-17T19:19:53;29.10;42.90
40816;DHT22;26535;48.788;9.214;2022-07-17T19:22:19;28.90;43.20
40816;DHT22;26535;48.788;9.214;2022-07-17T19:24:45;28.80;43.40
40816;DHT22;26535;48.788;9.214;2022-07-17T19:27:12;28.70;43.60
40816;DHT22;26535;48.788;9.214;2022-07-17T19:29:38;28.70;43.70
40816;DHT22;26535;48.788;9.214;2022-07-17T19:32:04;28.50;43.80
40816;DHT22;26535;48.788;9.214;2022-07-17T19:34:30;28.30;43.60
40816;DHT22;26535;48.788;9.214;2022-07-17T19:36:56;28.20;44.70
40816;DHT22;26535;48.788;9.214;2022-07-17T19:39:21;28.00;43.80
40816;DHT22;26535;48.788;9.214;2022-07-17T19:41:47;27.90;44.60
40816;DHT22;26535;48.788;9.214;2022-07-17T19:44:13;27.80;44.20
40816;DHT22;26535;48.788;9.214;2022-07-17T19:46:39;27.70;45.00
40816;DHT22;26535;48.788;9.214;2022-07-17T19:49:04;27.70;45.40
40816;DHT22;26535;48.788;9.214;2022-07-17T19:51:30;27.50;44.70
40816;DHT22;26535;48.788;9.214;2022-07-17T19:53:56;27.40;45.50
40816;DHT22;26535;48.788;9.214;2022-07-17T19:56:22;27.20;46.20
40816;DHT22;26535;48.788;9.214;2022-07-17T19:58:50;27.10;46.40
40816;DHT22;26535;48.788;9.214;2022-07-17T20:01:17;27.00;46.70
40816;DHT22;26535;48.788;9.214;2022-07-17T20:03:44;26.70;47.00
40816;DHT22;26535;48.788;9.214;2022-07-17T20:06:10;26.50;47.30
40816;DHT22;26535;48.788;9.214;2022-07-17T20:08:36;26.20;47.50
40816;DHT22;26535;48.788;9.214;2022-07-17T20:11:03;26.10;47.70
40816;DHT22;26535;48.788;9.214;2022-07-17T20:13:30;26.10;47.70
40816;DHT22;26535;48.788;9.214;2022-07-17T20:15:57;26.10;47.80
40816;DHT22;26535;48.788;9.214;2022-07-17T20:18:23;26.00;47.90
40816;DHT22;26535;48.788;9.214;2022-07-17T20:20:49;25.90;48.20
40816;DHT22;26535;48.788;9.214;2022-07-17T20:23:16;25.70;48.30
40816;DHT22;26535;48.788;9.214;2022-07-17T20:25:42;25.70;48.50
40816;DHT22;26535;48.788;9.214;2022-07-17T20:28:09;25.60;48.50
40816;DHT22;26535;48.788;9.214;2022-07-17T20:30:36;25.50;48.60
40816;DHT22;26535;48.788;9.214;2022-07-17T20:33:02;25.30;48.70
40816;DHT22;26535;48.788;9.214;2022-07-17T20:35:28;25.10;49.00
40816;DHT22;26535;48.788;9.214;2022-07-17T20:37:54;25.10;49.10
40816;DHT22;26535;48.788;9.214;2022-07-17T20:40:19;24.90;49.30
40816;DHT22;26535;48.788;9.214;2022-07-17T20:42:45;24.80;49.60